createdAt,value
2019-04-23T00:01:11.095Z,19.80
2019-04-23T00:03:34.411Z,19.70
2019-04-23T00:06:12.204Z,19.70
2019-04-23T00:08:41.980Z,19.70
2019-04-23T00:13:45.384Z,19.70
2019-04-23T00:16:14.009Z,19.60
2019-04-23T00:18:46.753Z,19.60
2019-04-23T00:21:42.489Z,19.60
2019-04-23T00:24:47.471Z,19.60
2019-04-23T00:27:13.158Z,19.60
2019-04-23T00:29:44.680Z,19.60
2019-04-23T00:32:10.395Z,19.60
2019-04-23T00:34:42.622Z,19.60
2019-04-23T00:37:20.266Z,19.50
2019-04-23T00:39:51.182Z,19.50
2019-04-23T00:42:14.873Z,19.50
2019-04-23T00:44:45.925Z,19.50
2019-04-23T00:47:23.190Z,19.50
2019-04-23T00:49:51.629Z,19.50
2019-04-23T00:54:58.085Z,19.40
2019-04-23T00:57:29.438Z,19.40
2019-04-23T01:00:03.531Z,19.40
2019-04-23T01:02:33.047Z,19.40
2019-04-23T01:05:03.651Z,19.40
2019-04-23T01:07:31.824Z,19.30
2019-04-23T01:10:13.918Z,19.30
2019-04-23T01:12:49.555Z,19.30
2019-04-23T01:15:18.926Z,19.30
2019-04-23T01:17:53.459Z,19.30
2019-04-23T01:20:37.406Z,19.30
2019-04-23T01:22:44.272Z,19.30
2019-04-23T01:25:34.206Z,19.20
2019-04-23T01:28:22.670Z,19.20
2019-04-23T01:30:55.334Z,19.20
2019-04-23T01:33:32.922Z,19.20
2019-04-23T01:36:09.605Z,19.20
2019-04-23T01:38:35.483Z,19.20
2019-04-23T01:41:01.799Z,19.10
2019-04-23T01:43:38.210Z,19.10
2019-04-23T01:46:09.808Z,19.10
2019-04-23T01:48:40.531Z,19.10
2019-04-23T01:51:02.320Z,19.10
2019-04-23T01:53:41.995Z,19.10
2019-04-23T01:56:11.154Z,19.00
2019-04-23T01:58:45.491Z,19.00
2019-04-23T02:01:20.750Z,19.00
2019-04-23T02:03:56.082Z,19.00
2019-04-23T02:06:19.908Z,19.00
2019-04-23T02:09:00.549Z,19.00
2019-04-23T02:11:25.329Z,19.00
2019-04-23T02:14:03.827Z,18.90
2019-04-23T02:16:32.684Z,18.90
2019-04-23T02:19:03.095Z,18.90
2019-04-23T02:21:41.343Z,18.90
2019-04-23T02:24:12.140Z,18.80
2019-04-23T02:29:28.611Z,18.80
2019-04-23T02:31:59.288Z,18.80
2019-04-23T02:37:02.153Z,18.80
2019-04-23T02:39:31.177Z,18.80
2019-04-23T02:42:19.105Z,18.80
2019-04-23T02:44:24.153Z,18.80
2019-04-23T02:47:11.962Z,18.70
2019-04-23T02:49:54.450Z,18.70
2019-04-23T02:52:09.496Z,18.70
2019-04-23T02:57:16.115Z,18.70
2019-04-23T03:18:12.448Z,18.60
2019-04-23T03:28:33.375Z,18.50
2019-04-23T03:38:45.744Z,18.40
2019-04-23T03:41:15.362Z,18.40
2019-04-23T03:46:16.273Z,18.40
2019-04-23T03:48:41.734Z,18.40
2019-04-23T03:51:09.680Z,18.40
2019-04-23T03:56:24.164Z,18.30
2019-04-23T04:01:22.850Z,18.30
2019-04-23T04:06:44.757Z,18.30
2019-04-23T04:16:34.303Z,18.20
2019-04-23T04:19:06.351Z,18.20
2019-04-23T04:24:22.296Z,18.20
2019-04-23T04:35:05.087Z,18.10
2019-04-23T04:46:59.415Z,18.10
2019-04-23T04:49:31.443Z,18.10
2019-04-23T04:52:19.591Z,18.00
2019-04-23T04:54:31.004Z,18.00
2019-04-23T04:57:12.945Z,18.00
2019-04-23T04:59:40.451Z,18.00
2019-04-23T05:02:16.195Z,18.00
2019-04-23T05:04:48.397Z,18.00
2019-04-23T05:07:08.670Z,18.00
2019-04-23T05:14:52.811Z,18.00
2019-04-23T05:17:57.272Z,18.00
2019-04-23T05:20:17.004Z,17.90
2019-04-23T05:22:58.156Z,17.90
2019-04-23T05:25:12.644Z,17.90
2019-04-23T05:27:55.249Z,17.90
2019-04-23T05:32:49.124Z,17.90
2019-04-23T05:35:39.636Z,17.90
2019-04-23T05:38:15.465Z,17.90
2019-04-23T05:40:30.474Z,17.90
2019-04-23T05:42:52.116Z,17.90
2019-04-23T05:45:29.853Z,17.90
2019-04-23T05:48:09.862Z,17.90
2019-04-23T05:53:04.249Z,17.90
2019-04-23T05:55:34.107Z,17.90
2019-04-23T05:58:15.342Z,17.90
2019-04-23T06:00:45.713Z,17.90
2019-04-23T06:03:16.283Z,17.90
2019-04-23T06:05:49.664Z,17.90
2019-04-23T06:08:28.105Z,17.90
2019-04-23T06:11:00.878Z,17.90
2019-04-23T06:13:26.223Z,17.90
2019-04-23T06:15:59.680Z,17.90
2019-04-23T06:18:30.449Z,17.90
2019-04-23T06:20:55.854Z,17.90
2019-04-23T06:23:38.568Z,17.90
2019-04-23T06:28:33.605Z,18.00
2019-04-23T06:31:07.841Z,18.00
2019-04-23T06:33:39.657Z,18.00
2019-04-23T06:36:18.694Z,18.00
2019-04-23T06:38:53.803Z,18.00
2019-04-23T06:41:21.925Z,18.00
2019-04-23T06:44:06.058Z,18.00
2019-04-23T06:46:39.475Z,18.00
2019-04-23T06:49:00.725Z,18.00
2019-04-23T06:51:38.355Z,18.00
2019-04-23T06:54:03.346Z,18.00
2019-04-23T06:56:43.452Z,18.10
2019-04-23T06:59:13.001Z,18.10
2019-04-23T07:01:51.590Z,18.10
2019-04-23T07:09:18.709Z,18.10
2019-04-23T07:11:42.805Z,18.10
2019-04-23T07:14:12.445Z,18.10
2019-04-23T07:16:54.573Z,18.20
2019-04-23T07:19:31.783Z,18.20
2019-04-23T07:21:58.917Z,18.20
2019-04-23T07:24:28.402Z,18.20
2019-04-23T07:26:55.921Z,18.20
2019-04-23T07:29:32.202Z,18.20
2019-04-23T07:32:07.121Z,18.20
2019-04-23T07:34:41.580Z,18.30
2019-04-23T07:37:13.694Z,18.30
2019-04-23T07:40:19.699Z,18.30
2019-04-23T07:43:08.094Z,18.30
2019-04-23T07:46:16.599Z,18.30
2019-04-23T07:48:35.209Z,18.30
2019-04-23T07:51:16.180Z,18.30
2019-04-23T07:53:46.693Z,18.30
2019-04-23T07:58:44.753Z,18.30
2019-04-23T08:01:19.495Z,18.40
2019-04-23T08:03:55.955Z,18.40
2019-04-23T08:06:21.581Z,18.40
2019-04-23T08:08:59.609Z,18.40
2019-04-23T08:16:33.635Z,18.50
2019-04-23T08:19:05.491Z,18.50
2019-04-23T08:21:32.101Z,18.60
2019-04-23T08:24:28.905Z,18.60
2019-04-23T08:27:02.758Z,18.60
2019-04-23T08:29:30.501Z,18.70
2019-04-23T08:37:36.047Z,18.80
2019-04-23T08:48:21.746Z,19.00
2019-04-23T08:58:32.089Z,19.10
2019-04-23T09:00:58.621Z,19.10
2019-04-23T09:03:31.474Z,19.20
2019-04-23T09:06:05.321Z,19.30
2019-04-23T09:11:16.663Z,19.30
2019-04-23T09:13:53.293Z,19.40
2019-04-23T09:16:10.653Z,19.40
2019-04-23T09:18:37.085Z,19.50
2019-04-23T09:21:15.561Z,19.60
2019-04-23T09:23:46.853Z,19.60
2019-04-23T09:26:11.015Z,19.60
2019-04-23T09:32:00.840Z,19.60
2019-04-23T09:34:20.461Z,19.70
2019-04-23T09:37:10.084Z,19.70
2019-04-23T09:40:02.085Z,19.80
2019-04-23T09:42:56.762Z,19.80
2019-04-23T09:45:28.212Z,19.90
2019-04-23T09:48:04.915Z,19.90
2019-04-23T09:53:09.756Z,20.00
2019-04-23T10:00:40.701Z,20.10
2019-04-23T10:03:04.473Z,20.20
2019-04-23T10:05:30.975Z,20.20
2019-04-23T10:08:03.064Z,20.30
2019-04-23T10:10:26.142Z,20.30
2019-04-23T10:12:58.007Z,20.30
2019-04-23T10:15:33.007Z,20.40
2019-04-23T10:18:00.534Z,20.40
2019-04-23T10:20:31.392Z,20.40
2019-04-23T10:23:02.257Z,20.50
2019-04-23T10:25:34.036Z,20.50
2019-04-23T10:28:10.943Z,20.60
2019-04-23T10:30:54.614Z,20.60
2019-04-23T10:33:25.456Z,20.70
2019-04-23T10:36:02.649Z,20.70
2019-04-23T10:38:28.654Z,20.70
2019-04-23T10:41:00.380Z,20.80
2019-04-23T10:43:33.624Z,20.80
2019-04-23T10:46:43.382Z,20.80
2019-04-23T10:54:53.851Z,20.80
2019-04-23T10:57:17.012Z,20.90
2019-04-23T11:02:40.230Z,20.90
2019-04-23T11:10:03.460Z,20.90
2019-04-23T11:20:33.745Z,21.00
2019-04-23T11:28:06.910Z,21.00
2019-04-23T11:30:36.155Z,21.00
2019-04-23T11:33:30.127Z,21.00
2019-04-23T11:38:43.279Z,21.00
2019-04-23T11:40:41.551Z,21.00
2019-04-23T11:43:28.465Z,21.00
2019-04-23T11:53:41.264Z,21.10
2019-04-23T11:58:37.639Z,21.10
2019-04-23T12:04:26.657Z,21.20
2019-04-23T12:07:13.624Z,21.20
2019-04-23T12:09:46.588Z,21.10
2019-04-23T12:12:17.326Z,21.20
2019-04-23T12:14:48.046Z,21.20
2019-04-23T12:27:31.705Z,21.30
2019-04-23T12:30:15.003Z,21.30
2019-04-23T12:38:13.881Z,21.40
2019-04-23T12:43:13.292Z,21.40
2019-04-23T12:48:02.982Z,21.60
2019-04-23T12:54:07.603Z,21.60
2019-04-23T12:56:48.395Z,21.50
2019-04-23T12:59:12.404Z,21.50
2019-04-23T13:01:49.725Z,21.60
2019-04-23T13:04:22.193Z,21.50
2019-04-23T13:06:46.195Z,21.60
2019-04-23T13:09:38.975Z,21.60
2019-04-23T13:11:40.778Z,21.60
2019-04-23T13:14:30.690Z,21.70
2019-04-23T13:17:05.581Z,21.60
2019-04-23T13:19:39.842Z,21.70
2019-04-23T13:22:16.503Z,21.70
2019-04-23T13:24:57.929Z,21.80
2019-04-23T13:27:30.692Z,21.80
2019-04-23T13:29:56.760Z,21.70
2019-04-23T13:32:29.281Z,21.80
2019-04-23T13:35:08.531Z,21.90
2019-04-23T13:37:37.617Z,21.80
2019-04-23T13:39:59.939Z,21.80
2019-04-23T13:42:45.114Z,21.80
2019-04-23T13:45:20.343Z,21.80
2019-04-23T13:50:20.243Z,21.90
2019-04-23T13:55:16.706Z,21.90
2019-04-23T14:00:24.903Z,22.00
2019-04-23T14:02:52.539Z,22.00
2019-04-23T14:06:12.955Z,22.00
2019-04-23T14:08:24.624Z,22.00
2019-04-23T14:10:59.193Z,22.00
2019-04-23T14:13:39.358Z,22.00
2019-04-23T14:21:11.161Z,22.10
2019-04-23T14:23:55.829Z,22.10
2019-04-23T14:26:15.616Z,22.10
2019-04-23T14:28:41.678Z,22.10
2019-04-23T14:31:13.417Z,22.10
2019-04-23T14:33:54.832Z,22.10
2019-04-23T14:38:52.791Z,22.10
2019-04-23T14:41:23.610Z,22.10
2019-04-23T14:49:03.958Z,22.00
2019-04-23T14:54:09.207Z,22.10
2019-04-23T14:56:39.069Z,22.10
2019-04-23T14:59:06.787Z,22.10
2019-04-23T15:01:42.883Z,22.10
2019-04-23T15:04:10.953Z,22.10
2019-04-23T15:06:57.986Z,22.10
2019-04-23T15:12:04.816Z,22.00
2019-04-23T15:14:28.709Z,22.00
2019-04-23T15:17:00.006Z,22.00
2019-04-23T15:19:56.099Z,22.00
2019-04-23T15:24:38.786Z,22.10
2019-04-23T15:29:30.231Z,22.10
2019-04-23T15:32:18.655Z,22.10
2019-04-23T15:34:53.241Z,22.10
2019-04-23T15:37:33.492Z,22.10
2019-04-23T15:39:54.997Z,22.10
2019-04-23T15:45:00.925Z,22.10
2019-04-23T15:47:32.694Z,22.10
2019-04-23T15:52:39.784Z,22.10
2019-04-23T15:55:01.234Z,22.10
2019-04-23T15:57:53.898Z,22.10
2019-04-23T16:00:05.418Z,22.10
2019-04-23T16:02:11.855Z,22.10
2019-04-23T16:04:42.100Z,22.10
2019-04-23T16:07:29.828Z,22.10
2019-04-23T16:10:19.126Z,22.10
2019-04-23T16:12:42.224Z,22.10
2019-04-23T16:15:13.318Z,22.10
2019-04-23T16:18:03.898Z,22.10
2019-04-23T16:23:09.469Z,22.10
2019-04-23T16:25:37.864Z,22.10
2019-04-23T16:30:48.177Z,22.10
2019-04-23T16:33:34.982Z,22.20
2019-04-23T16:36:05.314Z,22.10
2019-04-23T16:38:45.566Z,22.10
2019-04-23T16:41:04.163Z,22.10
2019-04-23T16:43:35.424Z,22.10
2019-04-23T16:46:11.632Z,22.10
2019-04-23T16:48:53.244Z,22.10
2019-04-23T16:53:41.816Z,22.00
2019-04-23T16:56:16.643Z,22.10
2019-04-23T16:58:54.040Z,22.10
2019-04-23T17:01:12.140Z,22.10
2019-04-23T17:04:11.804Z,22.10
2019-04-23T17:06:27.259Z,22.00
2019-04-23T17:08:59.882Z,22.00
2019-04-23T17:11:26.938Z,22.00
2019-04-23T17:14:09.522Z,22.00
2019-04-23T17:19:11.352Z,22.00
2019-04-23T17:21:39.103Z,22.00
2019-04-23T17:24:21.250Z,21.90
2019-04-23T17:26:36.020Z,22.00
2019-04-23T17:29:15.512Z,22.00
2019-04-23T17:31:45.026Z,21.90
2019-04-23T17:34:58.025Z,21.90
2019-04-23T17:37:05.280Z,21.90
2019-04-23T17:40:00.927Z,21.90
2019-04-23T17:42:24.410Z,21.90
2019-04-23T17:45:16.632Z,21.90
2019-04-23T17:50:17.926Z,21.90
2019-04-23T17:52:43.712Z,21.80
2019-04-23T17:55:15.453Z,21.80
2019-04-23T18:00:27.937Z,21.80
2019-04-23T18:05:16.778Z,21.80
2019-04-23T18:08:01.934Z,21.70
2019-04-23T18:10:27.615Z,21.70
2019-04-23T18:12:56.659Z,21.60
2019-04-23T18:15:24.493Z,21.70
2019-04-23T18:18:02.202Z,21.70
2019-04-23T18:21:04.838Z,21.70
2019-04-23T18:23:35.976Z,21.70
2019-04-23T18:26:12.364Z,21.70
2019-04-23T18:28:48.121Z,21.60
2019-04-23T18:31:45.232Z,21.60
2019-04-23T18:36:33.730Z,21.60
2019-04-23T18:39:12.119Z,21.60
2019-04-23T18:41:47.583Z,21.60
2019-04-23T18:44:21.995Z,21.50
2019-04-23T18:46:54.739Z,21.50
2019-04-23T18:49:21.475Z,21.50
2019-04-23T18:54:21.878Z,21.50
2019-04-23T18:57:27.838Z,21.50
2019-04-23T18:59:44.685Z,21.50
2019-04-23T19:02:35.466Z,21.40
2019-04-23T19:10:32.060Z,21.40
2019-04-23T19:13:14.154Z,21.40
2019-04-23T19:18:18.914Z,21.40
2019-04-23T19:23:25.644Z,21.30
2019-04-23T19:25:49.891Z,21.30
2019-04-23T19:31:27.679Z,21.30
2019-04-23T19:41:08.905Z,21.20
2019-04-23T19:43:53.089Z,21.10
2019-04-23T19:46:22.480Z,21.10
2019-04-23T19:51:26.279Z,21.10
2019-04-23T19:54:06.693Z,21.10
2019-04-23T19:56:29.153Z,21.00
2019-04-23T19:58:56.673Z,21.00
2019-04-23T20:01:29.148Z,21.10
2019-04-23T20:03:57.620Z,21.00
2019-04-23T20:07:00.732Z,21.00
2019-04-23T20:11:44.770Z,20.90
2019-04-23T20:14:23.888Z,20.90
2019-04-23T20:17:04.122Z,20.90
2019-04-23T20:19:28.010Z,20.90
2019-04-23T20:22:00.735Z,20.90
2019-04-23T20:24:34.725Z,20.80
2019-04-23T20:27:06.164Z,20.80
2019-04-23T20:35:01.896Z,20.80
2019-04-23T20:37:44.573Z,20.80
2019-04-23T20:39:59.923Z,20.70
2019-04-23T20:42:44.919Z,20.80
2019-04-23T20:45:06.324Z,20.70
2019-04-23T20:47:38.968Z,20.70
2019-04-23T20:49:58.269Z,20.70
2019-04-23T20:52:40.858Z,20.70
2019-04-23T20:55:19.956Z,20.60
2019-04-23T20:58:03.659Z,20.60
2019-04-23T21:01:00.330Z,20.60
2019-04-23T21:03:45.602Z,20.60
2019-04-23T21:06:04.368Z,20.50
2019-04-23T21:08:53.759Z,20.50
2019-04-23T21:10:58.355Z,20.50
2019-04-23T21:14:01.831Z,20.50
2019-04-23T21:16:04.959Z,20.50
2019-04-23T21:23:51.148Z,20.40
2019-04-23T21:26:08.340Z,20.40
2019-04-23T21:28:50.703Z,20.40
2019-04-23T21:31:28.357Z,20.30
2019-04-23T21:36:35.582Z,20.30
2019-04-23T21:39:24.651Z,20.30
2019-04-23T21:44:46.814Z,20.20
2019-04-23T21:47:14.523Z,20.20
2019-04-23T21:50:04.578Z,20.10
2019-04-23T21:52:30.352Z,20.10
2019-04-23T21:54:56.883Z,20.10
2019-04-23T21:57:37.068Z,20.00
2019-04-23T22:00:19.423Z,20.00
2019-04-23T22:02:38.282Z,20.00
2019-04-23T22:05:01.052Z,20.00
2019-04-23T22:07:44.739Z,19.90
2019-04-23T22:10:15.725Z,19.90
2019-04-23T22:12:48.789Z,19.90
2019-04-23T22:15:10.963Z,19.90
2019-04-23T22:17:44.827Z,19.80
2019-04-23T22:20:19.383Z,19.80
2019-04-23T22:22:57.277Z,19.80
2019-04-23T22:25:18.111Z,19.80
2019-04-23T22:27:54.105Z,19.80
2019-04-23T22:35:24.324Z,19.70
2019-04-23T22:38:09.645Z,19.70
2019-04-23T22:40:35.042Z,19.70
2019-04-23T22:43:14.935Z,19.70
2019-04-23T22:45:38.081Z,19.60
2019-04-23T22:48:11.083Z,19.60
2019-04-23T22:50:47.348Z,19.60
2019-04-23T22:55:49.677Z,19.60
2019-04-23T22:58:16.096Z,19.60
2019-04-23T23:01:15.408Z,19.60
2019-04-23T23:03:49.158Z,19.60
2019-04-23T23:06:17.500Z,19.60
2019-04-23T23:08:55.836Z,19.60
2019-04-23T23:11:19.027Z,19.60
2019-04-23T23:14:05.155Z,19.50
2019-04-23T23:16:16.709Z,19.50
2019-04-23T23:18:59.880Z,19.50
2019-04-23T23:21:22.260Z,19.50
2019-04-23T23:23:59.611Z,19.50
2019-04-23T23:26:31.714Z,19.50
2019-04-23T23:29:15.390Z,19.50
2019-04-23T23:31:29.944Z,19.50
2019-04-23T23:36:40.047Z,19.50
2019-04-23T23:39:18.090Z,19.50
2019-04-23T23:41:44.501Z,19.50
2019-04-23T23:49:22.167Z,19.40
2019-04-23T23:51:49.323Z,19.40
2019-04-23T23:54:19.993Z,19.40
2019-04-23T23:59:26.969Z,19.40
